createdAt,value
2023-05-02T00:00:13.640Z,75.46
2023-05-02T00:03:02.070Z,75.66
2023-05-02T00:05:31.032Z,75.59
2023-05-02T00:07:59.833Z,75.80
2023-05-02T00:10:28.172Z,75.93
2023-05-02T00:12:56.603Z,75.95
2023-05-02T00:15:25.590Z,76.02
2023-05-02T00:17:53.928Z,76.13
2023-05-02T00:20:22.432Z,76.15
2023-05-02T00:22:50.780Z,76.08
2023-05-02T00:25:19.311Z,76.14
2023-05-02T00:27:48.958Z,76.18
2023-05-02T00:30:18.485Z,76.08
2023-05-02T00:32:46.956Z,76.07
2023-05-02T00:35:15.432Z,76.12
2023-05-02T00:37:43.792Z,76.30
2023-05-02T00:40:13.338Z,76.39
2023-05-02T00:42:41.682Z,76.50
2023-05-02T00:45:10.403Z,76.54
2023-05-02T00:47:38.843Z,76.57
2023-05-02T00:50:08.076Z,76.73
2023-05-02T00:52:37.775Z,76.68
2023-05-02T00:55:06.654Z,76.88
2023-05-02T00:57:35.035Z,76.91
2023-05-02T01:00:05.089Z,77.09
2023-05-02T01:02:59.081Z,77.35
2023-05-02T01:05:42.910Z,77.88
2023-05-02T01:08:19.336Z,77.86
2023-05-02T01:11:24.531Z,77.86
2023-05-02T01:13:54.807Z,77.89
2023-05-02T01:16:24.262Z,77.94
2023-05-02T01:18:52.860Z,77.99
2023-05-02T01:21:22.111Z,78.04
2023-05-02T01:24:05.556Z,78.06
2023-05-02T01:27:07.493Z,78.11
2023-05-02T01:29:37.721Z,78.14
2023-05-02T01:32:09.180Z,78.28
2023-05-02T01:34:40.768Z,78.51
2023-05-02T01:37:12.781Z,78.61
2023-05-02T01:39:42.833Z,78.57
2023-05-02T01:42:13.290Z,78.72
2023-05-02T01:44:43.437Z,79.03
2023-05-02T01:47:12.693Z,79.09
2023-05-02T01:49:43.996Z,79.32
2023-05-02T01:52:14.173Z,79.45
2023-05-02T01:54:43.203Z,79.69
2023-05-02T01:57:12.665Z,79.80
2023-05-02T01:59:43.651Z,79.92
2023-05-02T02:02:14.427Z,80.06
2023-05-02T02:04:44.095Z,80.00
2023-05-02T02:07:14.588Z,80.15
2023-05-02T02:09:43.060Z,80.27
2023-05-02T02:12:23.285Z,80.32
2023-05-02T02:15:03.216Z,80.42
2023-05-02T02:18:05.305Z,80.52
2023-05-02T02:20:35.740Z,80.54
2023-05-02T02:23:08.720Z,80.56
2023-05-02T02:25:37.856Z,80.48
2023-05-02T02:28:07.878Z,80.51
2023-05-02T02:30:36.721Z,80.59
2023-05-02T02:33:05.181Z,80.70
2023-05-02T02:35:40.517Z,80.49
2023-05-02T02:38:13.960Z,80.52
2023-05-02T02:40:54.581Z,80.63
2023-05-02T02:44:01.395Z,80.73
2023-05-02T02:47:10.552Z,80.70
2023-05-02T02:49:50.928Z,80.96
2023-05-02T02:56:28.476Z,81.21
2023-05-02T02:59:27.721Z,81.35
2023-05-02T03:02:08.436Z,81.44
2023-05-02T03:04:44.440Z,81.48
2023-05-02T03:12:12.105Z,81.54
2023-05-02T03:14:41.712Z,81.65
2023-05-02T03:17:10.609Z,81.79
2023-05-02T03:19:38.977Z,81.96
2023-05-02T03:22:07.392Z,82.05
2023-05-02T03:24:35.730Z,82.13
2023-05-02T03:27:04.647Z,82.16
2023-05-02T03:29:33.044Z,82.16
2023-05-02T03:32:01.500Z,82.30
2023-05-02T03:34:29.963Z,82.41
2023-05-02T03:36:58.566Z,82.34
2023-05-02T03:39:26.887Z,82.37
2023-05-02T03:41:55.282Z,82.39
2023-05-02T03:44:23.690Z,82.27
2023-05-02T03:46:52.124Z,82.35
2023-05-02T03:49:20.742Z,82.32
2023-05-02T03:51:49.042Z,82.33
2023-05-02T03:54:17.778Z,82.38
2023-05-02T03:56:47.060Z,82.43
2023-05-02T03:59:15.378Z,82.38
2023-05-02T04:01:43.733Z,82.40
2023-05-02T04:04:12.099Z,82.28
2023-05-02T04:06:40.539Z,82.30
2023-05-02T04:09:09.004Z,82.22
2023-05-02T04:20:05.271Z,82.17
2023-05-02T04:22:34.455Z,82.02
2023-05-02T04:25:02.827Z,82.04
2023-05-02T04:27:31.158Z,82.07
2023-05-02T04:29:59.752Z,82.03
2023-05-02T04:32:29.247Z,82.18
2023-05-02T04:34:57.710Z,82.34
2023-05-02T04:37:26.142Z,82.34
2023-05-02T04:39:54.510Z,82.53
2023-05-02T04:42:24.253Z,82.74
2023-05-02T04:44:52.600Z,82.92
2023-05-02T04:47:21.208Z,82.94
2023-05-02T04:49:49.546Z,83.35
2023-05-02T04:52:18.653Z,83.39
2023-05-02T04:54:46.987Z,83.55
2023-05-02T04:57:15.691Z,83.54
2023-05-02T04:59:44.078Z,83.84
2023-05-02T05:02:13.224Z,84.14
2023-05-02T05:04:41.797Z,84.38
2023-05-02T05:07:10.107Z,84.69
2023-05-02T05:09:38.644Z,85.11
2023-05-02T05:12:07.689Z,85.38
2023-05-02T05:14:36.135Z,85.68
2023-05-02T05:17:04.562Z,85.95
2023-05-02T05:30:39.135Z,86.25
2023-05-02T05:33:07.442Z,86.28
2023-05-02T05:35:36.258Z,86.59
2023-05-02T05:38:04.545Z,86.75
2023-05-02T05:40:33.049Z,87.01
2023-05-02T05:43:01.339Z,87.13
2023-05-02T05:45:29.709Z,87.43
2023-05-02T05:47:58.107Z,87.54
2023-05-02T05:50:27.338Z,87.78
2023-05-02T05:52:55.745Z,87.92
2023-05-02T05:55:24.011Z,88.00
2023-05-02T05:57:52.341Z,88.09
2023-05-02T06:00:20.758Z,88.28
2023-05-02T06:02:49.296Z,88.45
2023-05-02T06:05:17.633Z,88.60
2023-05-02T06:07:46.421Z,88.86
2023-05-02T06:10:14.829Z,88.87
2023-05-02T06:12:43.168Z,89.13
2023-05-02T06:15:11.689Z,89.35
2023-05-02T06:17:40.142Z,89.51
2023-05-02T06:20:09.428Z,89.90
2023-05-02T06:22:37.822Z,89.81
2023-05-02T06:25:07.429Z,89.48
2023-05-02T06:27:36.180Z,89.71
2023-05-02T06:30:06.098Z,89.57
2023-05-02T06:32:34.512Z,89.39
2023-05-02T06:35:02.904Z,89.15
2023-05-02T06:37:37.940Z,89.08
2023-05-02T06:46:03.242Z,88.96
2023-05-02T06:48:31.851Z,88.76
2023-05-02T06:51:00.232Z,88.72
2023-05-02T06:53:29.407Z,88.46
2023-05-02T06:55:58.678Z,88.49
2023-05-02T06:58:27.156Z,88.46
2023-05-02T07:00:55.512Z,88.64
2023-05-02T07:03:23.982Z,88.80
2023-05-02T07:05:52.365Z,88.48
2023-05-02T07:08:44.621Z,88.14
2023-05-02T07:11:13.019Z,88.10
2023-05-02T07:13:41.506Z,87.94
2023-05-02T07:16:09.939Z,87.98
2023-05-02T07:18:38.294Z,87.92
2023-05-02T07:21:06.948Z,87.90
2023-05-02T07:23:35.347Z,87.81
2023-05-02T07:26:06.428Z,87.58
2023-05-02T07:28:35.095Z,87.78
2023-05-02T07:31:03.515Z,87.89
2023-05-02T07:33:31.868Z,87.99
2023-05-02T07:36:02.590Z,87.91
2023-05-02T07:38:30.956Z,88.09
2023-05-02T07:41:01.151Z,87.89
2023-05-02T07:43:29.888Z,88.00
2023-05-02T07:45:58.397Z,88.13
2023-05-02T07:48:27.956Z,88.31
2023-05-02T07:50:56.474Z,88.20
2023-05-02T07:53:24.986Z,88.23
2023-05-02T07:55:53.312Z,88.22
2023-05-02T07:58:21.744Z,88.01
2023-05-02T08:00:50.777Z,87.97
2023-05-02T08:03:19.173Z,88.05
2023-05-02T08:05:48.336Z,87.98
2023-05-02T08:08:16.689Z,87.71
2023-05-02T08:10:48.174Z,87.32
2023-05-02T08:13:16.526Z,87.18
2023-05-02T08:15:45.057Z,87.07
2023-05-02T08:18:13.518Z,86.54
2023-05-02T08:20:43.627Z,86.52
2023-05-02T08:23:11.926Z,86.47
2023-05-02T08:25:40.340Z,86.36
2023-05-02T08:28:08.677Z,86.48
2023-05-02T08:30:49.167Z,86.53
2023-05-02T08:33:18.130Z,86.39
2023-05-02T08:35:46.587Z,86.09
2023-05-02T08:38:14.985Z,86.05
2023-05-02T08:40:44.299Z,85.81
2023-05-02T08:43:13.379Z,85.50
2023-05-02T08:45:45.506Z,85.43
2023-05-02T08:48:16.652Z,85.38
2023-05-02T08:50:48.224Z,85.08
2023-05-02T08:53:18.147Z,84.73
2023-05-02T09:05:07.698Z,84.28
2023-05-02T09:07:49.350Z,83.68
2023-05-02T09:10:17.937Z,83.54
2023-05-02T09:12:46.572Z,83.47
2023-05-02T09:15:20.036Z,83.41
2023-05-02T09:17:49.687Z,83.37
2023-05-02T09:20:18.347Z,83.39
2023-05-02T09:22:52.244Z,83.25
2023-05-02T09:25:21.637Z,83.20
2023-05-02T09:27:53.153Z,82.84
2023-05-02T09:30:24.584Z,82.71
2023-05-02T09:32:56.534Z,82.00
2023-05-02T09:35:25.153Z,81.59
2023-05-02T09:37:59.481Z,81.45
2023-05-02T09:40:30.254Z,80.99
2023-05-02T09:42:58.659Z,80.70
2023-05-02T09:45:27.044Z,80.27
2023-05-02T09:48:01.673Z,79.88
2023-05-02T09:50:38.573Z,79.79
2023-05-02T09:53:10.020Z,79.90
2023-05-02T09:55:38.518Z,80.18
2023-05-02T09:58:07.759Z,79.87
2023-05-02T10:00:45.103Z,79.55
2023-05-02T10:03:17.925Z,79.51
2023-05-02T10:05:51.115Z,79.24
2023-05-02T10:08:20.514Z,78.62
2023-05-02T10:10:59.177Z,78.69
2023-05-02T10:13:32.373Z,78.41
2023-05-02T10:16:05.765Z,77.65
2023-05-02T10:19:03.028Z,77.20
2023-05-02T10:21:32.511Z,77.33
2023-05-02T10:24:04.076Z,76.59
2023-05-02T10:26:35.103Z,76.21
2023-05-02T10:29:03.566Z,76.06
2023-05-02T10:31:37.809Z,76.08
2023-05-02T10:34:10.914Z,75.87
2023-05-02T10:36:39.388Z,75.75
2023-05-02T10:39:08.002Z,75.83
2023-05-02T10:41:39.573Z,75.63
2023-05-02T10:44:08.848Z,75.43
2023-05-02T10:46:43.244Z,75.60
2023-05-02T10:49:13.783Z,74.81
2023-05-02T10:51:43.494Z,74.99
2023-05-02T10:54:17.970Z,74.74
2023-05-02T10:57:07.575Z,74.44
2023-05-02T10:59:39.279Z,74.14
2023-05-02T11:02:31.044Z,74.14
2023-05-02T11:05:07.682Z,73.56
2023-05-02T11:07:37.652Z,73.40
2023-05-02T11:10:15.371Z,73.35
2023-05-02T11:12:46.248Z,73.02
2023-05-02T11:15:41.239Z,73.08
2023-05-02T11:18:14.618Z,73.00
2023-05-02T11:20:45.560Z,72.10
2023-05-02T11:23:13.792Z,71.22
2023-05-02T11:25:47.744Z,71.46
2023-05-02T11:28:34.497Z,71.68
2023-05-02T11:31:31.113Z,71.74
2023-05-02T11:34:04.680Z,71.18
2023-05-02T11:36:35.315Z,71.10
2023-05-02T11:39:05.861Z,71.11
2023-05-02T11:41:44.286Z,71.11
2023-05-02T11:44:12.593Z,70.64
2023-05-02T11:46:41.365Z,70.60
2023-05-02T11:49:12.036Z,70.77
2023-05-02T11:51:41.364Z,70.56
2023-05-02T11:54:10.385Z,70.54
2023-05-02T11:56:38.753Z,70.75
2023-05-02T11:59:08.312Z,70.80
2023-05-02T12:01:36.845Z,70.42
2023-05-02T12:04:08.522Z,70.41
2023-05-02T12:06:37.084Z,70.32
2023-05-02T12:09:19.434Z,70.02
2023-05-02T12:11:53.721Z,69.75
2023-05-02T12:14:33.646Z,70.06
2023-05-02T12:17:04.292Z,70.20
2023-05-02T12:19:32.784Z,70.14
2023-05-02T12:22:01.404Z,69.97
2023-05-02T12:24:30.049Z,70.01
2023-05-02T12:27:12.471Z,69.45
2023-05-02T12:29:43.221Z,69.02
2023-05-02T12:32:12.988Z,68.53
2023-05-02T12:34:41.895Z,68.59
2023-05-02T12:37:10.620Z,68.96
2023-05-02T12:39:42.428Z,68.53
2023-05-02T12:42:15.171Z,67.94
2023-05-02T12:44:46.552Z,67.98
2023-05-02T12:47:16.960Z,68.16
2023-05-02T12:50:04.290Z,67.49
2023-05-02T12:52:54.885Z,66.57
2023-05-02T12:55:27.328Z,65.71
2023-05-02T12:58:25.487Z,65.59
2023-05-02T13:00:53.975Z,65.28
2023-05-02T13:03:22.642Z,65.10
2023-05-02T13:05:54.856Z,65.26
2023-05-02T13:08:23.910Z,65.01
2023-05-02T13:10:52.649Z,64.57
2023-05-02T13:13:22.097Z,63.59
2023-05-02T13:15:50.484Z,62.61
2023-05-02T13:20:20.673Z,61.83
2023-05-02T13:22:49.069Z,62.07
2023-05-02T13:25:17.528Z,62.49
2023-05-02T13:27:46.128Z,62.66
2023-05-02T13:30:14.665Z,62.76
2023-05-02T13:32:44.620Z,62.90
2023-05-02T13:35:14.136Z,62.81
2023-05-02T13:37:42.531Z,62.89
2023-05-02T13:40:11.816Z,63.00
2023-05-02T13:42:40.268Z,62.90
2023-05-02T13:45:09.728Z,62.88
2023-05-02T13:47:39.580Z,63.05
2023-05-02T13:50:09.508Z,63.07
2023-05-02T13:52:37.987Z,63.11
2023-05-02T13:55:06.986Z,63.19
2023-05-02T13:57:35.462Z,63.20
2023-05-02T14:00:05.992Z,63.33
2023-05-02T14:02:34.534Z,63.47
2023-05-02T14:05:03.379Z,63.42
2023-05-02T14:07:31.924Z,63.19
2023-05-02T14:10:00.758Z,63.35
2023-05-02T14:12:29.360Z,63.49
2023-05-02T14:14:57.987Z,63.40
2023-05-02T14:17:26.882Z,63.27
2023-05-02T14:19:55.397Z,63.13
2023-05-02T14:22:23.940Z,63.49
2023-05-02T14:24:52.243Z,63.52
2023-05-02T14:27:20.853Z,63.72
2023-05-02T14:29:49.281Z,63.61
2023-05-02T14:32:17.877Z,63.86
2023-05-02T14:34:46.452Z,63.87
2023-05-02T14:37:14.895Z,63.66
2023-05-02T14:39:48.483Z,63.66
2023-05-02T14:42:18.651Z,63.62
2023-05-02T14:44:47.024Z,63.52
2023-05-02T14:47:15.729Z,63.30
2023-05-02T14:49:44.231Z,63.27
2023-05-02T14:52:12.569Z,63.02
2023-05-02T14:54:40.922Z,62.87
2023-05-02T14:57:09.592Z,62.79
2023-05-02T14:59:38.873Z,62.30
2023-05-02T15:02:07.893Z,62.08
2023-05-02T15:04:37.069Z,62.20
2023-05-02T15:07:05.824Z,61.98
2023-05-02T15:09:34.249Z,62.16
2023-05-02T15:12:06.173Z,62.13
2023-05-02T15:14:34.555Z,61.92
2023-05-02T15:17:03.442Z,62.34
2023-05-02T15:19:32.419Z,62.77
2023-05-02T15:22:01.986Z,63.00
2023-05-02T15:24:33.546Z,63.00
2023-05-02T15:27:04.137Z,63.21
2023-05-02T15:29:32.478Z,63.37
2023-05-02T15:32:01.028Z,63.02
2023-05-02T15:34:29.674Z,63.04
2023-05-02T15:37:01.330Z,63.62
2023-05-02T15:39:29.695Z,64.19
2023-05-02T15:41:58.425Z,64.61
2023-05-02T15:44:26.848Z,65.04
2023-05-02T15:46:56.087Z,65.46
2023-05-02T15:49:31.697Z,65.98
2023-05-02T15:52:01.600Z,66.50
2023-05-02T15:54:30.077Z,66.72
2023-05-02T15:56:58.526Z,67.32
2023-05-02T15:59:26.841Z,67.74
2023-05-02T16:01:55.232Z,68.22
2023-05-02T16:04:25.195Z,68.80
2023-05-02T16:06:53.685Z,69.15
2023-05-02T16:09:22.127Z,69.37
2023-05-02T16:11:50.605Z,69.63
2023-05-02T16:14:18.913Z,69.96
2023-05-02T16:16:47.192Z,70.47
2023-05-02T16:19:15.975Z,71.01
2023-05-02T16:21:44.325Z,71.48
2023-05-02T16:24:12.895Z,71.88
2023-05-02T16:26:41.326Z,72.69
2023-05-02T16:29:09.679Z,73.25
2023-05-02T16:31:38.184Z,73.77
2023-05-02T16:34:06.742Z,74.43
2023-05-02T16:36:35.019Z,75.05
2023-05-02T16:39:07.163Z,75.34
2023-05-02T16:41:36.212Z,75.83
2023-05-02T16:44:04.904Z,76.14
2023-05-02T16:46:33.378Z,76.35
2023-05-02T16:49:01.734Z,76.86
2023-05-02T16:51:32.692Z,77.16
2023-05-02T16:54:01.023Z,77.62
2023-05-02T16:56:29.503Z,77.92
2023-05-02T16:58:57.915Z,78.27
2023-05-02T17:01:26.445Z,78.71
2023-05-02T17:03:55.093Z,79.00
2023-05-02T17:06:23.504Z,79.23
2023-05-02T17:08:51.900Z,79.42
2023-05-02T17:11:21.899Z,79.78
2023-05-02T17:13:51.090Z,80.07
2023-05-02T17:16:23.109Z,80.37
2023-05-02T17:18:51.443Z,80.59
2023-05-02T17:21:19.875Z,80.89
2023-05-02T17:23:48.372Z,81.12
2023-05-02T17:26:16.938Z,81.32
2023-05-02T17:28:45.942Z,81.74
2023-05-02T17:31:14.312Z,81.83
2023-05-02T17:33:42.696Z,82.04
2023-05-02T17:36:11.141Z,82.27
2023-05-02T17:38:39.505Z,82.50
2023-05-02T17:41:07.858Z,82.63
2023-05-02T17:43:38.029Z,82.73
2023-05-02T17:46:10.906Z,82.76
2023-05-02T17:48:44.793Z,82.72
2023-05-02T17:51:13.148Z,82.91
2023-05-02T17:53:42.686Z,83.03
2023-05-02T17:56:11.080Z,83.11
2023-05-02T17:58:39.474Z,83.18
2023-05-02T18:01:13.944Z,83.25
2023-05-02T18:03:42.624Z,83.49
2023-05-02T18:06:18.742Z,83.58
2023-05-02T18:08:47.205Z,83.58
2023-05-02T18:11:17.413Z,83.54
2023-05-02T18:13:46.913Z,83.61
2023-05-02T18:16:15.934Z,83.77
2023-05-02T18:18:44.605Z,83.58
2023-05-02T18:21:22.524Z,83.67
2023-05-02T18:23:51.009Z,83.90
2023-05-02T18:26:19.502Z,84.18
2023-05-02T18:28:53.077Z,84.17
2023-05-02T18:31:21.962Z,84.44
2023-05-02T18:33:56.491Z,84.46
2023-05-02T18:36:27.651Z,84.28
2023-05-02T18:38:56.401Z,84.42
2023-05-02T18:41:24.892Z,84.70
2023-05-02T18:43:53.273Z,84.79
2023-05-02T18:46:21.778Z,84.88
2023-05-02T18:48:50.165Z,84.82
2023-05-02T18:51:18.551Z,84.83
2023-05-02T18:53:49.044Z,84.91
2023-05-02T18:56:18.207Z,84.92
2023-05-02T18:58:46.648Z,84.86
2023-05-02T19:01:30.347Z,84.70
2023-05-02T19:04:01.077Z,84.38
2023-05-02T19:06:31.512Z,84.26
2023-05-02T19:09:00.050Z,84.03
2023-05-02T19:11:28.467Z,83.82
2023-05-02T19:13:59.904Z,83.55
2023-05-02T19:16:29.181Z,83.37
2023-05-02T19:18:57.935Z,83.10
2023-05-02T19:21:27.443Z,83.05
2023-05-02T19:23:56.758Z,82.84
2023-05-02T19:26:25.232Z,82.70
2023-05-02T19:28:53.680Z,82.73
2023-05-02T19:31:23.958Z,82.62
2023-05-02T19:33:52.501Z,82.59
2023-05-02T19:36:24.068Z,82.42
2023-05-02T19:38:58.208Z,82.32
2023-05-02T19:41:33.283Z,82.37
2023-05-02T19:44:01.715Z,82.15
2023-05-02T19:46:30.529Z,82.03
2023-05-02T19:48:59.107Z,82.00
2023-05-02T19:51:28.232Z,81.91
2023-05-02T19:53:58.888Z,81.69
2023-05-02T19:56:28.751Z,81.54
2023-05-02T19:58:58.660Z,81.40
2023-05-02T20:01:29.442Z,81.30
2023-05-02T20:03:58.380Z,81.16
2023-05-02T20:06:28.553Z,81.11
2023-05-02T20:08:57.051Z,80.87
2023-05-02T20:11:26.061Z,80.81
2023-05-02T20:13:54.555Z,80.90
2023-05-02T20:16:23.064Z,80.83
2023-05-02T20:18:52.983Z,80.85
2023-05-02T20:21:21.368Z,80.86
2023-05-02T20:23:50.178Z,80.80
2023-05-02T20:26:18.816Z,80.81
2023-05-02T20:28:47.249Z,80.85
2023-05-02T20:31:15.715Z,80.84
2023-05-02T20:33:45.772Z,80.84
2023-05-02T20:36:15.997Z,80.98
2023-05-02T20:38:47.932Z,80.98
2023-05-02T20:41:17.758Z,80.97
2023-05-02T20:43:47.206Z,81.10
2023-05-02T20:46:21.152Z,81.25
2023-05-02T20:48:49.685Z,81.29
2023-05-02T20:51:18.138Z,81.19
2023-05-02T20:53:46.873Z,81.38
2023-05-02T20:56:15.408Z,81.47
2023-05-02T20:58:43.811Z,81.48
2023-05-02T21:01:12.227Z,81.53
2023-05-02T21:03:41.252Z,81.69
2023-05-02T21:06:09.960Z,81.72
2023-05-02T21:08:38.591Z,81.83
2023-05-02T21:11:14.858Z,82.06
2023-05-02T21:13:43.702Z,81.94
2023-05-02T21:16:20.371Z,82.02
2023-05-02T21:18:48.973Z,82.13
2023-05-02T21:21:17.319Z,82.28
2023-05-02T21:23:45.666Z,82.38
2023-05-02T21:26:14.080Z,82.48
2023-05-02T21:28:42.633Z,82.58
2023-05-02T21:31:11.358Z,82.68
2023-05-02T21:33:41.424Z,82.88
2023-05-02T21:36:10.676Z,82.85
2023-05-02T21:38:38.978Z,83.06
2023-05-02T21:41:07.357Z,83.06
2023-05-02T21:43:40.826Z,83.28
2023-05-02T21:46:11.829Z,83.24
2023-05-02T21:48:40.232Z,83.42
2023-05-02T21:51:10.749Z,83.47
2023-05-02T21:53:39.885Z,83.63
2023-05-02T21:56:09.628Z,83.66
2023-05-02T21:58:38.004Z,83.73
2023-05-02T22:01:06.588Z,83.80
2023-05-02T22:03:35.185Z,83.78
2023-05-02T22:06:06.438Z,83.79
2023-05-02T22:08:36.310Z,83.80
2023-05-02T22:11:07.863Z,83.64
2023-05-02T22:13:36.878Z,83.72
2023-05-02T22:16:06.640Z,83.59
2023-05-02T22:18:35.084Z,83.50
2023-05-02T22:21:03.792Z,83.52
2023-05-02T22:23:32.169Z,83.41
2023-05-02T22:26:00.523Z,83.33
2023-05-02T22:28:29.030Z,83.33
2023-05-02T22:30:57.330Z,83.29
2023-05-02T22:33:25.703Z,83.35
2023-05-02T22:35:54.195Z,83.25
2023-05-02T22:38:22.578Z,83.42
2023-05-02T22:40:50.908Z,83.40
2023-05-02T22:43:19.311Z,83.46
2023-05-02T22:45:49.257Z,83.51
2023-05-02T22:48:17.679Z,83.57
2023-05-02T22:50:47.812Z,83.61
2023-05-02T22:53:16.534Z,83.53
2023-05-02T22:55:44.814Z,83.33
2023-05-02T22:58:13.234Z,83.25
2023-05-02T23:00:41.741Z,83.07
2023-05-02T23:03:11.540Z,82.95
2023-05-02T23:05:40.073Z,82.86
2023-05-02T23:08:08.437Z,82.83
2023-05-02T23:10:42.949Z,82.82
2023-05-02T23:13:11.610Z,82.72
2023-05-02T23:15:40.263Z,82.61
2023-05-02T23:18:08.625Z,82.41
2023-05-02T23:20:37.063Z,82.43
2023-05-02T23:23:05.451Z,82.42
2023-05-02T23:25:35.715Z,82.40
2023-05-02T23:28:04.602Z,82.41
2023-05-02T23:30:33.678Z,82.49
2023-05-02T23:33:02.172Z,82.50
2023-05-02T23:35:32.283Z,82.55
2023-05-02T23:38:04.725Z,82.57
2023-05-02T23:40:33.583Z,82.76
2023-05-02T23:43:01.984Z,82.75
2023-05-02T23:45:30.322Z,82.91
2023-05-02T23:47:58.804Z,82.94
2023-05-02T23:50:27.226Z,82.95
2023-05-02T23:52:55.646Z,83.11
2023-05-02T23:55:24.004Z,83.22
2023-05-02T23:57:52.309Z,83.19
